createdAt,value
2023-12-16T00:01:04.110Z,100768.19
2023-12-16T00:03:33.667Z,100770.06
2023-12-16T00:06:02.982Z,100777.56
2023-12-16T00:08:31.850Z,100773.06
2023-12-16T00:10:59.810Z,100773.19
2023-12-16T00:13:28.848Z,100759.59
2023-12-16T00:15:56.934Z,100764.81
2023-12-16T00:18:25.786Z,100763.97
2023-12-16T00:20:56.858Z,100764.44
2023-12-16T00:23:24.940Z,100765.91
2023-12-16T00:25:53.007Z,100771.09
2023-12-16T00:28:21.203Z,100767.59
2023-12-16T00:30:49.667Z,100764.09
2023-12-16T00:33:18.660Z,100774.50
2023-12-16T00:35:46.822Z,100774.00
2023-12-16T00:38:14.889Z,100778.94
2023-12-16T00:40:43.842Z,100780.91
2023-12-16T00:43:11.976Z,100793.66
2023-12-16T00:45:40.095Z,100795.25
2023-12-16T00:48:09.467Z,100800.06
2023-12-16T00:50:39.713Z,100796.31
2023-12-16T00:53:07.795Z,100795.59
2023-12-16T00:55:35.856Z,100802.75
2023-12-16T00:58:03.978Z,100804.56
2023-12-16T01:00:32.038Z,100803.22
2023-12-16T01:03:00.514Z,100806.22
2023-12-16T01:05:28.741Z,100815.22
2023-12-16T01:07:57.079Z,100806.25
2023-12-16T01:10:25.061Z,100812.31
2023-12-16T01:12:53.854Z,100818.25
2023-12-16T01:15:21.822Z,100814.63
2023-12-16T01:17:49.860Z,100804.81
2023-12-16T01:20:18.290Z,100804.06
2023-12-16T01:22:46.261Z,100805.63
2023-12-16T01:25:14.185Z,100799.72
2023-12-16T01:27:43.857Z,100799.72
2023-12-16T01:30:12.038Z,100802.25
2023-12-16T01:32:41.570Z,100808.34
2023-12-16T01:35:10.130Z,100816.56
2023-12-16T01:37:38.373Z,100819.34
2023-12-16T01:40:07.411Z,100814.00
2023-12-16T01:42:35.926Z,100812.81
2023-12-16T01:45:05.478Z,100810.00
2023-12-16T01:47:34.009Z,100811.47
2023-12-16T01:50:02.533Z,100801.28
2023-12-16T01:52:31.716Z,100791.72
2023-12-16T01:55:02.279Z,100792.06
2023-12-16T01:57:30.833Z,100787.22
2023-12-16T01:59:59.597Z,100780.91
2023-12-16T02:02:28.426Z,100781.91
2023-12-16T02:04:56.494Z,100796.69
2023-12-16T02:07:25.369Z,100796.31
2023-12-16T02:09:53.445Z,100801.31
2023-12-16T02:12:21.470Z,100794.50
2023-12-16T02:14:49.505Z,100793.66
2023-12-16T02:17:17.440Z,100791.13
2023-12-16T02:19:47.544Z,100797.56
2023-12-16T02:22:15.721Z,100797.69
2023-12-16T02:24:43.764Z,100808.34
2023-12-16T02:27:11.727Z,100806.75
2023-12-16T02:29:39.952Z,100812.81
2023-12-16T02:32:08.650Z,100820.56
2023-12-16T02:34:37.206Z,100828.56
2023-12-16T02:37:07.621Z,100825.53
2023-12-16T02:39:36.192Z,100835.72
2023-12-16T02:42:04.390Z,100832.19
2023-12-16T02:44:32.768Z,100834.03
2023-12-16T02:47:01.172Z,100834.41
2023-12-16T02:49:30.226Z,100831.09
2023-12-16T02:51:59.891Z,100828.44
2023-12-16T02:54:29.371Z,100825.78
2023-12-16T02:56:57.643Z,100831.72
2023-12-16T02:59:26.069Z,100840.78
2023-12-16T03:01:54.352Z,100843.69
2023-12-16T03:04:22.617Z,100846.47
2023-12-16T03:06:51.844Z,100843.63
2023-12-16T03:09:19.930Z,100855.31
2023-12-16T03:11:48.924Z,100868.34
2023-12-16T03:14:17.973Z,100878.63
2023-12-16T03:16:47.223Z,100878.41
2023-12-16T03:19:15.357Z,100881.03
2023-12-16T03:21:43.622Z,100893.00
2023-12-16T03:24:14.539Z,100888.97
2023-12-16T03:26:45.182Z,100891.19
2023-12-16T03:29:13.728Z,100877.78
2023-12-16T03:31:41.802Z,100884.06
2023-12-16T03:34:10.119Z,100889.66
2023-12-16T03:36:38.133Z,100897.66
2023-12-16T03:39:07.144Z,100890.03
2023-12-16T03:41:36.094Z,100891.88
2023-12-16T03:44:04.046Z,100888.13
2023-12-16T03:46:32.020Z,100883.50
2023-12-16T03:49:00.535Z,100882.72
2023-12-16T03:51:29.084Z,100890.44
2023-12-16T03:53:57.454Z,100880.78
2023-12-16T03:56:25.485Z,100882.06
2023-12-16T03:58:53.534Z,100880.53
2023-12-16T04:01:21.638Z,100868.28
2023-12-16T04:03:49.984Z,100867.44
2023-12-16T04:06:19.726Z,100859.94
2023-12-16T04:08:47.752Z,100846.09
2023-12-16T04:11:15.937Z,100846.59
2023-12-16T04:13:43.795Z,100848.50
2023-12-16T04:16:11.755Z,100848.72
2023-12-16T04:18:40.164Z,100845.78
2023-12-16T04:21:08.177Z,100845.06
2023-12-16T04:23:36.067Z,100854.09
2023-12-16T04:26:07.708Z,100855.78
2023-12-16T04:28:37.134Z,100868.66
2023-12-16T04:31:06.309Z,100874.84
2023-12-16T04:33:35.028Z,100885.13
2023-12-16T04:36:03.148Z,100877.13
2023-12-16T04:38:31.230Z,100892.13
2023-12-16T04:40:59.197Z,100886.56
2023-12-16T04:43:27.836Z,100886.47
2023-12-16T04:45:56.288Z,100876.41
2023-12-16T04:48:24.269Z,100882.72
2023-12-16T04:50:52.832Z,100893.38
2023-12-16T04:53:20.871Z,100891.94
2023-12-16T04:55:51.928Z,100904.16
2023-12-16T04:58:21.551Z,100900.91
2023-12-16T05:00:50.145Z,100909.88
2023-12-16T05:03:18.513Z,100904.03
2023-12-16T05:05:46.711Z,100910.34
2023-12-16T05:08:15.984Z,100905.25
2023-12-16T05:10:47.226Z,100920.03
2023-12-16T05:13:16.344Z,100920.16
2023-12-16T05:15:44.900Z,100916.75
2023-12-16T05:18:13.211Z,100929.53
2023-12-16T05:20:41.397Z,100928.06
2023-12-16T05:23:09.287Z,100929.38
2023-12-16T05:25:37.504Z,100929.13
2023-12-16T05:28:05.498Z,100928.19
2023-12-16T05:30:33.610Z,100928.31
2023-12-16T05:33:01.787Z,100933.28
2023-12-16T05:35:29.813Z,100919.94
2023-12-16T05:37:58.404Z,100919.06
2023-12-16T05:40:26.614Z,100923.22
2023-12-16T05:42:54.773Z,100914.25
2023-12-16T05:45:23.199Z,100917.03
2023-12-16T05:47:51.688Z,100920.06
2023-12-16T05:50:22.053Z,100925.16
2023-12-16T05:52:50.202Z,100915.09
2023-12-16T05:55:18.438Z,100902.22
2023-12-16T05:57:46.452Z,100904.84
2023-12-16T06:00:15.742Z,100916.50
2023-12-16T06:02:43.901Z,100915.78
2023-12-16T06:05:12.094Z,100917.09
2023-12-16T06:07:40.579Z,100913.22
2023-12-16T06:10:09.596Z,100920.69
2023-12-16T06:12:37.744Z,100918.56
2023-12-16T06:15:06.422Z,100924.59
2023-12-16T06:17:34.644Z,100927.50
2023-12-16T06:20:03.244Z,100930.41
2023-12-16T06:22:32.865Z,100946.81
2023-12-16T06:25:01.982Z,100948.41
2023-12-16T06:27:31.746Z,100960.81
2023-12-16T06:29:59.672Z,100969.34
2023-12-16T06:32:27.877Z,100971.19
2023-12-16T06:34:55.934Z,100976.91
2023-12-16T06:37:23.915Z,100984.28
2023-12-16T06:39:52.000Z,100977.72
2023-12-16T06:42:20.516Z,100978.19
2023-12-16T06:44:48.607Z,100975.88
2023-12-16T06:47:16.693Z,100978.44
2023-12-16T06:49:44.946Z,100972.59
2023-12-16T06:52:13.547Z,100970.31
2023-12-16T06:54:41.451Z,100964.88
2023-12-16T06:57:09.444Z,100965.50
2023-12-16T06:59:37.530Z,100963.19
2023-12-16T07:02:06.037Z,100963.53
2023-12-16T07:04:35.364Z,100961.50
2023-12-16T07:07:03.784Z,100955.06
2023-12-16T07:09:31.900Z,100970.94
2023-12-16T07:11:59.869Z,100971.41
2023-12-16T07:14:30.271Z,100967.69
2023-12-16T07:16:58.474Z,100977.34
2023-12-16T07:19:26.628Z,100969.38
2023-12-16T07:21:55.264Z,100976.03
2023-12-16T07:24:23.417Z,100975.19
2023-12-16T07:26:51.343Z,100970.97
2023-12-16T07:29:19.802Z,100974.59
2023-12-16T07:31:49.406Z,100973.72
2023-12-16T07:34:18.269Z,100979.34
2023-12-16T07:36:46.608Z,100985.53
2023-12-16T07:39:14.669Z,100992.69
2023-12-16T07:41:43.074Z,101000.44
2023-12-16T07:44:12.757Z,101004.94
2023-12-16T07:46:42.822Z,101009.66
2023-12-16T07:49:11.500Z,101015.25
2023-12-16T07:51:39.629Z,101015.38
2023-12-16T07:54:08.623Z,101014.28
2023-12-16T07:56:36.714Z,101022.41
2023-12-16T07:59:04.651Z,101022.06
2023-12-16T08:01:32.690Z,101034.16
2023-12-16T08:04:00.983Z,101034.78
2023-12-16T08:06:31.678Z,101030.53
2023-12-16T08:09:00.923Z,101030.19
2023-12-16T08:11:29.116Z,101036.50
2023-12-16T08:13:57.152Z,101037.81
2023-12-16T08:16:25.603Z,101030.41
2023-12-16T08:18:56.336Z,101034.53
2023-12-16T08:21:24.893Z,101040.94
2023-12-16T08:23:53.141Z,101050.31
2023-12-16T08:26:21.117Z,101034.03
2023-12-16T08:28:49.601Z,101029.31
2023-12-16T08:31:17.915Z,101020.06
2023-12-16T08:33:46.253Z,101026.75
2023-12-16T08:36:14.230Z,101031.00
2023-12-16T08:38:45.550Z,101036.81
2023-12-16T08:41:13.856Z,101040.44
2023-12-16T08:43:44.471Z,101037.38
2023-12-16T08:46:13.492Z,101048.03
2023-12-16T08:48:42.337Z,101047.69
2023-12-16T08:51:10.311Z,101047.53
2023-12-16T08:53:38.511Z,101044.69
2023-12-16T08:56:08.236Z,101049.72
2023-12-16T08:58:36.587Z,101060.09
2023-12-16T09:01:04.905Z,101070.09
2023-12-16T09:03:33.718Z,101077.84
2023-12-16T09:06:01.735Z,101076.31
2023-12-16T09:08:30.132Z,101065.66
2023-12-16T09:10:59.136Z,101074.63
2023-12-16T09:13:27.230Z,101068.53
2023-12-16T09:15:55.190Z,101078.78
2023-12-16T09:18:23.466Z,101072.06
2023-12-16T09:20:51.441Z,101081.78
2023-12-16T09:23:19.592Z,101083.63
2023-12-16T09:25:47.682Z,101078.25
2023-12-16T09:28:16.729Z,101082.31
2023-12-16T09:30:45.788Z,101080.06
2023-12-16T09:33:14.328Z,101083.94
2023-12-16T09:35:44.751Z,101083.97
2023-12-16T09:38:13.281Z,101083.72
2023-12-16T09:40:42.389Z,101083.22
2023-12-16T09:43:21.166Z,101090.84
2023-12-16T09:45:49.609Z,101088.06
2023-12-16T09:48:18.904Z,101085.34
2023-12-16T09:50:48.097Z,101090.28
2023-12-16T09:53:16.558Z,101097.16
2023-12-16T09:55:45.726Z,101096.97
2023-12-16T09:58:17.688Z,101084.44
2023-12-16T10:00:50.648Z,101082.47
2023-12-16T10:03:18.978Z,101090.06
2023-12-16T10:05:47.950Z,101089.66
2023-12-16T10:08:17.079Z,101093.22
2023-12-16T10:10:51.315Z,101092.69
2023-12-16T10:13:23.285Z,101089.91
2023-12-16T10:15:51.772Z,101081.69
2023-12-16T10:18:20.359Z,101085.63
2023-12-16T10:20:50.124Z,101081.31
2023-12-16T10:23:20.132Z,101078.56
2023-12-16T10:25:50.149Z,101083.56
2023-12-16T10:28:20.715Z,101077.97
2023-12-16T10:30:50.306Z,101078.16
2023-12-16T10:33:24.781Z,101077.03
2023-12-16T10:35:53.978Z,101070.75
2023-12-16T10:38:27.368Z,101068.47
2023-12-16T10:40:56.206Z,101064.34
2023-12-16T10:43:25.406Z,101066.25
2023-12-16T10:45:55.782Z,101064.72
2023-12-16T10:48:28.028Z,101057.88
2023-12-16T10:50:57.134Z,101060.19
2023-12-16T10:53:28.182Z,101058.56
2023-12-16T10:56:01.197Z,101055.88
2023-12-16T10:58:32.381Z,101060.34
2023-12-16T11:01:07.421Z,101049.31
2023-12-16T11:03:53.405Z,101054.72
2023-12-16T11:07:07.421Z,101053.25
2023-12-16T11:09:35.474Z,101045.75
2023-12-16T11:12:05.099Z,101050.00
2023-12-16T11:14:35.585Z,101046.28
2023-12-16T11:17:11.947Z,101034.31
2023-12-16T11:19:47.231Z,101043.34
2023-12-16T11:22:21.984Z,101026.03
2023-12-16T11:24:53.354Z,101016.91
2023-12-16T11:27:22.335Z,101015.16
2023-12-16T11:29:51.807Z,101007.34
2023-12-16T11:32:20.095Z,101003.47
2023-12-16T11:34:52.956Z,101001.38
2023-12-16T11:37:39.189Z,101006.03
2023-12-16T11:40:11.324Z,101001.00
2023-12-16T11:42:45.067Z,101001.56
2023-12-16T11:45:40.149Z,100993.38
2023-12-16T11:48:10.118Z,100997.56
2023-12-16T11:50:41.012Z,100989.84
2023-12-16T11:53:13.409Z,101000.56
2023-12-16T11:55:42.909Z,100996.41
2023-12-16T11:58:11.411Z,101004.22
2023-12-16T12:00:39.819Z,100993.94
2023-12-16T12:03:08.471Z,100989.19
2023-12-16T12:05:38.516Z,100970.53
2023-12-16T12:08:07.809Z,100974.09
2023-12-16T12:10:36.380Z,100973.25
2023-12-16T12:13:04.876Z,100967.50
2023-12-16T12:15:36.955Z,100963.25
2023-12-16T12:18:05.446Z,100963.69
2023-12-16T12:20:34.273Z,100969.91
2023-12-16T12:23:04.417Z,100966.53
2023-12-16T12:25:33.535Z,100958.31
2023-12-16T12:28:01.522Z,100963.78
2023-12-16T12:30:29.736Z,100965.84
2023-12-16T12:32:57.808Z,100966.06
2023-12-16T12:35:26.221Z,100973.16
2023-12-16T12:37:55.141Z,100961.25
2023-12-16T12:40:24.814Z,100962.63
2023-12-16T12:42:55.482Z,100958.28
2023-12-16T12:45:27.582Z,100955.84
2023-12-16T12:47:57.495Z,100955.50
2023-12-16T12:50:30.185Z,100956.09
2023-12-16T12:53:19.803Z,100951.63
2023-12-16T12:55:47.112Z,100950.06
2023-12-16T12:58:22.870Z,100954.06
2023-12-16T13:00:56.070Z,100954.69
2023-12-16T13:03:24.309Z,100954.84
2023-12-16T13:05:52.770Z,100942.13
2023-12-16T13:08:21.186Z,100943.72
2023-12-16T13:10:52.799Z,100949.66
2023-12-16T13:13:22.576Z,100944.97
2023-12-16T13:15:55.009Z,100930.50
2023-12-16T13:18:27.515Z,100930.34
2023-12-16T13:20:58.345Z,100939.13
2023-12-16T13:23:28.255Z,100936.03
2023-12-16T13:25:56.793Z,100927.81
2023-12-16T13:28:25.392Z,100922.19
2023-12-16T13:30:54.470Z,100921.34
2023-12-16T13:33:23.394Z,100913.16
2023-12-16T13:35:52.216Z,100909.00
2023-12-16T13:38:22.197Z,100904.78
2023-12-16T13:40:53.707Z,100899.22
2023-12-16T13:43:22.422Z,100910.06
2023-12-16T13:45:52.117Z,100913.75
2023-12-16T13:48:21.308Z,100915.94
2023-12-16T13:50:51.128Z,100920.28
2023-12-16T13:53:19.307Z,100913.69
2023-12-16T13:55:47.591Z,100915.25
2023-12-16T13:58:15.859Z,100917.78
2023-12-16T14:00:47.393Z,100926.16
2023-12-16T14:03:15.811Z,100912.44
2023-12-16T14:05:44.567Z,100917.59
2023-12-16T14:08:12.814Z,100911.00
2023-12-16T14:10:41.063Z,100913.31
2023-12-16T14:13:09.346Z,100908.91
2023-12-16T14:15:37.509Z,100902.44
2023-12-16T14:18:05.581Z,100890.38
2023-12-16T14:20:33.969Z,100894.13
2023-12-16T14:23:01.937Z,100899.81
2023-12-16T14:25:30.183Z,100909.28
2023-12-16T14:27:59.199Z,100900.31
2023-12-16T14:30:27.479Z,100903.22
2023-12-16T14:32:56.536Z,100903.09
2023-12-16T14:35:26.089Z,100898.88
2023-12-16T14:37:54.746Z,100900.41
2023-12-16T14:40:23.245Z,100894.50
2023-12-16T14:42:51.243Z,100895.16
2023-12-16T14:45:19.909Z,100898.59
2023-12-16T14:47:48.062Z,100890.66
2023-12-16T14:50:18.664Z,100900.66
2023-12-16T14:52:46.676Z,100901.34
2023-12-16T14:55:14.940Z,100899.22
2023-12-16T14:57:44.645Z,100902.22
2023-12-16T15:00:13.298Z,100905.91
2023-12-16T15:02:42.072Z,100898.38
2023-12-16T15:05:10.431Z,100894.50
2023-12-16T15:07:38.557Z,100897.44
2023-12-16T15:10:08.703Z,100897.09
2023-12-16T15:12:37.119Z,100891.91
2023-12-16T15:15:06.500Z,100896.09
2023-12-16T15:17:35.308Z,100890.56
2023-12-16T15:20:04.584Z,100890.34
2023-12-16T15:22:32.505Z,100891.25
2023-12-16T15:25:00.815Z,100877.84
2023-12-16T15:27:28.810Z,100875.72
2023-12-16T15:29:57.283Z,100889.50
2023-12-16T15:32:25.391Z,100890.13
2023-12-16T15:34:53.751Z,100893.31
2023-12-16T15:37:21.878Z,100888.13
2023-12-16T15:39:50.055Z,100885.06
2023-12-16T15:42:18.092Z,100890.78
2023-12-16T15:44:47.157Z,100887.03
2023-12-16T15:47:15.541Z,100890.31
2023-12-16T15:49:44.002Z,100886.94
2023-12-16T15:52:12.068Z,100884.53
2023-12-16T15:54:42.407Z,100879.69
2023-12-16T15:57:12.336Z,100881.59
2023-12-16T15:59:41.259Z,100874.97
2023-12-16T16:02:09.417Z,100883.94
2023-12-16T16:04:38.080Z,100880.19
2023-12-16T16:07:06.097Z,100886.75
2023-12-16T16:09:34.361Z,100878.25
2023-12-16T16:12:02.534Z,100869.31
2023-12-16T16:14:31.730Z,100868.25
2023-12-16T16:17:00.205Z,100870.72
2023-12-16T16:19:28.612Z,100866.03
2023-12-16T16:21:56.736Z,100877.19
2023-12-16T16:24:24.921Z,100876.22
2023-12-16T16:26:53.533Z,100867.69
2023-12-16T16:29:21.664Z,100871.13
2023-12-16T16:31:49.637Z,100860.72
2023-12-16T16:34:18.135Z,100859.66
2023-12-16T16:36:46.161Z,100867.94
2023-12-16T16:39:14.675Z,100871.06
2023-12-16T16:41:42.642Z,100868.53
2023-12-16T16:44:13.241Z,100874.69
2023-12-16T16:46:43.312Z,100866.72
2023-12-16T16:49:13.342Z,100873.47
2023-12-16T16:51:41.464Z,100865.16
2023-12-16T16:54:12.190Z,100868.22
2023-12-16T16:56:43.387Z,100874.56
2023-12-16T16:59:12.745Z,100873.81
2023-12-16T17:01:40.877Z,100866.00
2023-12-16T17:04:09.097Z,100867.72
2023-12-16T17:06:37.222Z,100861.66
2023-12-16T17:09:10.997Z,100854.91
2023-12-16T17:11:39.708Z,100863.03
2023-12-16T17:14:11.922Z,100860.44
2023-12-16T17:16:41.958Z,100861.38
2023-12-16T17:19:11.360Z,100862.69
2023-12-16T17:21:41.008Z,100863.00
2023-12-16T17:24:10.307Z,100871.59
2023-12-16T17:26:38.722Z,100864.38
2023-12-16T17:29:08.126Z,100862.16
2023-12-16T17:31:38.095Z,100872.19
2023-12-16T17:34:07.177Z,100868.28
2023-12-16T17:36:35.392Z,100872.19
2023-12-16T17:39:03.918Z,100870.16
2023-12-16T17:41:33.285Z,100862.84
2023-12-16T17:44:03.140Z,100865.66
2023-12-16T17:46:31.252Z,100870.81
2023-12-16T17:48:59.663Z,100870.44
2023-12-16T17:51:27.735Z,100871.81
2023-12-16T17:53:58.170Z,100872.78
2023-12-16T17:56:26.441Z,100875.81
2023-12-16T17:58:54.707Z,100876.41
2023-12-16T18:01:22.765Z,100883.69
2023-12-16T18:03:52.553Z,100871.09
2023-12-16T18:06:21.721Z,100883.34
2023-12-16T18:08:49.947Z,100878.97
2023-12-16T18:11:18.653Z,100881.28
2023-12-16T18:13:47.332Z,100874.25
2023-12-16T18:16:15.505Z,100877.38
2023-12-16T18:18:44.551Z,100878.38
2023-12-16T18:21:13.479Z,100883.94
2023-12-16T18:23:42.186Z,100894.59
2023-12-16T18:26:12.047Z,100901.25
2023-12-16T18:28:40.411Z,100893.13
2023-12-16T18:31:09.134Z,100891.06
2023-12-16T18:33:37.767Z,100889.72
2023-12-16T18:36:06.402Z,100895.56
2023-12-16T18:38:34.415Z,100896.59
2023-12-16T18:41:02.820Z,100904.41
2023-12-16T18:43:31.927Z,100905.09
2023-12-16T18:46:00.254Z,100903.16
2023-12-16T18:48:30.036Z,100903.03
2023-12-16T18:50:58.559Z,100898.19
2023-12-16T18:53:26.789Z,100904.81
2023-12-16T18:55:54.996Z,100910.66
2023-12-16T18:58:23.342Z,100909.41
2023-12-16T19:00:51.330Z,100910.09
2023-12-16T19:03:20.538Z,100907.53
2023-12-16T19:05:49.717Z,100904.75
2023-12-16T19:08:18.890Z,100921.19
2023-12-16T19:10:46.991Z,100921.34
2023-12-16T19:13:15.200Z,100917.06
2023-12-16T19:15:43.224Z,100928.53
2023-12-16T19:18:13.738Z,100924.78
2023-12-16T19:20:41.891Z,100930.63
2023-12-16T19:23:10.574Z,100926.75
2023-12-16T19:25:39.961Z,100932.56
2023-12-16T19:28:08.093Z,100926.34
2023-12-16T19:30:36.517Z,100930.28
2023-12-16T19:33:04.866Z,100931.97
2023-12-16T19:35:34.470Z,100933.56
2023-12-16T19:38:02.544Z,100930.91
2023-12-16T19:40:30.525Z,100936.16
2023-12-16T19:42:58.614Z,100932.22
2023-12-16T19:45:26.678Z,100935.47
2023-12-16T19:47:55.119Z,100937.66
2023-12-16T19:50:23.100Z,100930.34
2023-12-16T19:52:51.905Z,100925.69
2023-12-16T19:55:20.542Z,100931.19
2023-12-16T19:57:48.872Z,100931.13
2023-12-16T20:00:17.261Z,100938.88
2023-12-16T20:02:46.119Z,100945.63
2023-12-16T20:05:14.392Z,100937.06
2023-12-16T20:07:43.737Z,100935.25
2023-12-16T20:10:12.511Z,100938.06
2023-12-16T20:12:40.729Z,100934.56
2023-12-16T20:15:09.379Z,100937.03
2023-12-16T20:17:39.265Z,100934.88
2023-12-16T20:20:09.176Z,100939.69
2023-12-16T20:22:37.407Z,100943.44
2023-12-16T20:25:06.011Z,100937.66
2023-12-16T20:27:34.316Z,100946.16
2023-12-16T20:30:02.411Z,100941.69
2023-12-16T20:32:31.503Z,100947.94
2023-12-16T20:35:00.752Z,100958.28
2023-12-16T20:37:29.849Z,100952.72
2023-12-16T20:40:16.272Z,100952.94
2023-12-16T20:42:44.559Z,100956.03
2023-12-16T20:45:12.704Z,100962.78
2023-12-16T20:47:41.185Z,100965.19
2023-12-16T20:50:09.724Z,100966.94
2023-12-16T20:52:39.290Z,100962.59
2023-12-16T20:55:07.638Z,100974.47
2023-12-16T20:57:38.239Z,100963.78
2023-12-16T21:00:07.195Z,100971.22
2023-12-16T21:02:35.439Z,100975.00
2023-12-16T21:05:03.830Z,100977.97
2023-12-16T21:07:31.963Z,100976.03
2023-12-16T21:10:00.025Z,100972.78
2023-12-16T21:12:28.334Z,100970.00
2023-12-16T21:14:57.105Z,100956.34
2023-12-16T21:17:26.513Z,100955.38
2023-12-16T21:19:54.692Z,100962.63
2023-12-16T21:22:22.975Z,100975.09
2023-12-16T21:24:51.640Z,100974.78
2023-12-16T21:27:20.007Z,100972.97
2023-12-16T21:29:48.037Z,100972.00
2023-12-16T21:32:18.637Z,100976.81
2023-12-16T21:34:47.012Z,100970.09
2023-12-16T21:37:15.383Z,100967.38
2023-12-16T21:39:43.352Z,100969.72
2023-12-16T21:42:11.815Z,100956.84
2023-12-16T21:44:40.360Z,100956.84
2023-12-16T21:47:08.691Z,100951.00
2023-12-16T21:49:37.055Z,100953.78
2023-12-16T21:52:06.329Z,100955.59
2023-12-16T21:54:34.436Z,100945.69
2023-12-16T21:57:02.779Z,100943.06
2023-12-16T21:59:31.070Z,100947.28
2023-12-16T22:01:59.471Z,100962.19
2023-12-16T22:04:27.427Z,100966.66
2023-12-16T22:06:56.422Z,100982.28
2023-12-16T22:09:24.662Z,100981.53
2023-12-16T22:11:53.859Z,100994.94
2023-12-16T22:14:22.019Z,100988.31
2023-12-16T22:16:50.469Z,100987.91
2023-12-16T22:19:18.595Z,100977.50
2023-12-16T22:21:46.789Z,100986.75
2023-12-16T22:24:14.799Z,100979.50
2023-12-16T22:26:43.364Z,100963.69
2023-12-16T22:29:12.029Z,100959.84
2023-12-16T22:31:41.965Z,100967.19
2023-12-16T22:34:10.493Z,100963.66
2023-12-16T22:36:38.554Z,100964.09
2023-12-16T22:39:09.699Z,100965.81
2023-12-16T22:41:38.151Z,100973.44
2023-12-16T22:44:06.170Z,100976.56
2023-12-16T22:46:34.846Z,100987.06
2023-12-16T22:49:03.167Z,100992.06
2023-12-16T22:51:31.792Z,100983.84
2023-12-16T22:54:01.023Z,100967.91
2023-12-16T22:56:29.139Z,100973.31
2023-12-16T22:58:57.050Z,100975.03
2023-12-16T23:01:25.186Z,100966.22
2023-12-16T23:03:53.507Z,100979.38
2023-12-16T23:06:22.439Z,100981.03
2023-12-16T23:08:50.704Z,100982.28
2023-12-16T23:11:18.902Z,100977.91
2023-12-16T23:13:49.387Z,100985.38
2023-12-16T23:16:17.713Z,100976.00
2023-12-16T23:18:45.799Z,100969.53
2023-12-16T23:21:14.077Z,100976.09
2023-12-16T23:23:43.020Z,100966.75
2023-12-16T23:26:11.655Z,100972.09
2023-12-16T23:28:42.057Z,100964.41
2023-12-16T23:31:15.353Z,100970.06
2023-12-16T23:33:45.389Z,100975.78
2023-12-16T23:36:15.266Z,100974.94
2023-12-16T23:38:43.568Z,100960.69
2023-12-16T23:41:16.244Z,100958.78
2023-12-16T23:43:44.905Z,100950.28
2023-12-16T23:46:18.867Z,100947.84
2023-12-16T23:48:49.791Z,100946.22
2023-12-16T23:51:18.015Z,100962.09
2023-12-16T23:53:49.572Z,100971.31
2023-12-16T23:56:19.380Z,100969.22
2023-12-16T23:58:49.156Z,100962.81
